sensor_id;sensor_type;location;lat;lon;timestamp;P1;durP1;ratioP1;P2;durP2;ratioP2
12654;SDS011;6392;44.644;11.448;2023-03-01T00:00:18;20.10;;;9.57;;
12654;SDS011;6392;44.644;11.448;2023-03-01T00:02:45;14.57;;;9.20;;
12654;SDS011;6392;44.644;11.448;2023-03-01T00:05:12;19.10;;;10.33;;
12654;SDS011;6392;44.644;11.448;2023-03-01T00:07:39;22.07;;;10.40;;
12654;SDS011;6392;44.644;11.448;2023-03-01T00:10:07;17.60;;;9.43;;
12654;SDS011;6392;44.644;11.448;2023-03-01T00:12:36;18.30;;;9.13;;
12654;SDS011;6392;44.644;11.448;2023-03-01T00:15:03;13.70;;;9.37;;
12654;SDS011;6392;44.644;11.448;2023-03-01T00:17:31;14.87;;;9.70;;
12654;SDS011;6392;44.644;11.448;2023-03-01T00:19:58;17.10;;;9.83;;
12654;SDS011;6392;44.644;11.448;2023-03-01T00:22:26;15.60;;;9.37;;
12654;SDS011;6392;44.644;11.448;2023-03-01T00:24:54;13.53;;;9.03;;
12654;SDS011;6392;44.644;11.448;2023-03-01T00:27:21;16.60;;;9.07;;
12654;SDS011;6392;44.644;11.448;2023-03-01T00:29:49;14.43;;;8.50;;
12654;SDS011;6392;44.644;11.448;2023-03-01T00:32:16;15.83;;;9.20;;
12654;SDS011;6392;44.644;11.448;2023-03-01T00:34:43;16.40;;;9.30;;
12654;SDS011;6392;44.644;11.448;2023-03-01T00:37:19;16.63;;;9.00;;
12654;SDS011;6392;44.644;11.448;2023-03-01T00:39:46;17.13;;;8.90;;
12654;SDS011;6392;44.644;11.448;2023-03-01T00:42:14;17.77;;;8.57;;
12654;SDS011;6392;44.644;11.448;2023-03-01T00:44:41;15.07;;;9.23;;
12654;SDS011;6392;44.644;11.448;2023-03-01T00:47:10;14.40;;;8.63;;
12654;SDS011;6392;44.644;11.448;2023-03-01T00:49:37;16.00;;;8.63;;
12654;SDS011;6392;44.644;11.448;2023-03-01T00:52:04;13.97;;;8.90;;
12654;SDS011;6392;44.644;11.448;2023-03-01T00:54:31;17.90;;;8.57;;
12654;SDS011;6392;44.644;11.448;2023-03-01T00:56:58;15.87;;;9.17;;
12654;SDS011;6392;44.644;11.448;2023-03-01T00:59:25;15.57;;;9.37;;
12654;SDS011;6392;44.644;11.448;2023-03-01T01:01:52;16.17;;;9.93;;
12654;SDS011;6392;44.644;11.448;2023-03-01T01:04:20;15.10;;;9.63;;
12654;SDS011;6392;44.644;11.448;2023-03-01T01:06:47;16.03;;;9.93;;
12654;SDS011;6392;44.644;11.448;2023-03-01T01:09:16;15.53;;;9.13;;
12654;SDS011;6392;44.644;11.448;2023-03-01T01:11:44;17.53;;;9.27;;
12654;SDS011;6392;44.644;11.448;2023-03-01T01:14:11;18.93;;;10.00;;
12654;SDS011;6392;44.644;11.448;2023-03-01T01:16:39;17.50;;;8.83;;
12654;SDS011;6392;44.644;11.448;2023-03-01T01:19:06;17.03;;;9.07;;
12654;SDS011;6392;44.644;11.448;2023-03-01T01:21:34;15.60;;;9.33;;
12654;SDS011;6392;44.644;11.448;2023-03-01T01:24:02;16.40;;;9.87;;
12654;SDS011;6392;44.644;11.448;2023-03-01T01:26:31;21.23;;;10.50;;
12654;SDS011;6392;44.644;11.448;2023-03-01T01:28:59;15.80;;;9.23;;
12654;SDS011;6392;44.644;11.448;2023-03-01T01:31:28;15.17;;;9.20;;
12654;SDS011;6392;44.644;11.448;2023-03-01T01:33:56;14.67;;;9.50;;
12654;SDS011;6392;44.644;11.448;2023-03-01T01:36:24;12.43;;;8.87;;
12654;SDS011;6392;44.644;11.448;2023-03-01T01:38:52;15.17;;;9.73;;
12654;SDS011;6392;44.644;11.448;2023-03-01T01:41:20;17.63;;;9.80;;
12654;SDS011;6392;44.644;11.448;2023-03-01T01:43:48;17.70;;;9.53;;
12654;SDS011;6392;44.644;11.448;2023-03-01T01:46:20;16.50;;;9.27;;
12654;SDS011;6392;44.644;11.448;2023-03-01T01:48:52;15.13;;;9.17;;
12654;SDS011;6392;44.644;11.448;2023-03-01T01:51:24;17.83;;;9.27;;
12654;SDS011;6392;44.644;11.448;2023-03-01T01:53:57;18.53;;;10.07;;
12654;SDS011;6392;44.644;11.448;2023-03-01T01:56:27;18.33;;;9.30;;
12654;SDS011;6392;44.644;11.448;2023-03-01T01:58:56;14.17;;;8.90;;
12654;SDS011;6392;44.644;11.448;2023-03-01T02:01:24;18.17;;;10.33;;
12654;SDS011;6392;44.644;11.448;2023-03-01T02:03:51;16.27;;;9.03;;
12654;SDS011;6392;44.644;11.448;2023-03-01T02:06:19;16.00;;;8.63;;
12654;SDS011;6392;44.644;11.448;2023-03-01T02:08:53;14.60;;;8.93;;
12654;SDS011;6392;44.644;11.448;2023-03-01T02:11:25;15.80;;;9.20;;
12654;SDS011;6392;44.644;11.448;2023-03-01T02:13:53;17.47;;;9.00;;
12654;SDS011;6392;44.644;11.448;2023-03-01T02:16:21;11.93;;;8.10;;
12654;SDS011;6392;44.644;11.448;2023-03-01T02:18:48;14.50;;;9.70;;
12654;SDS011;6392;44.644;11.448;2023-03-01T02:21:24;16.60;;;9.63;;
12654;SDS011;6392;44.644;11.448;2023-03-01T02:24:02;14.60;;;8.77;;
12654;SDS011;6392;44.644;11.448;2023-03-01T02:26:40;16.93;;;9.70;;
12654;SDS011;6392;44.644;11.448;2023-03-01T02:29:12;13.80;;;9.13;;
12654;SDS011;6392;44.644;11.448;2023-03-01T02:31:40;15.60;;;9.27;;
12654;SDS011;6392;44.644;11.448;2023-03-01T02:34:09;14.57;;;8.87;;
12654;SDS011;6392;44.644;11.448;2023-03-01T02:36:39;18.17;;;8.47;;
12654;SDS011;6392;44.644;11.448;2023-03-01T02:39:10;16.47;;;9.43;;
12654;SDS011;6392;44.644;11.448;2023-03-01T02:41:43;15.90;;;9.27;;
12654;SDS011;6392;44.644;11.448;2023-03-01T02:44:15;16.60;;;9.83;;
12654;SDS011;6392;44.644;11.448;2023-03-01T02:46:43;14.37;;;8.87;;
12654;SDS011;6392;44.644;11.448;2023-03-01T02:49:17;18.17;;;9.87;;
12654;SDS011;6392;44.644;11.448;2023-03-01T02:51:48;16.10;;;9.57;;
12654;SDS011;6392;44.644;11.448;2023-03-01T02:54:28;20.30;;;9.53;;
12654;SDS011;6392;44.644;11.448;2023-03-01T02:56:59;14.37;;;8.47;;
12654;SDS011;6392;44.644;11.448;2023-03-01T02:59:29;17.67;;;9.50;;
12654;SDS011;6392;44.644;11.448;2023-03-01T03:02:00;16.90;;;9.57;;
12654;SDS011;6392;44.644;11.448;2023-03-01T03:04:27;17.67;;;8.73;;
12654;SDS011;6392;44.644;11.448;2023-03-01T03:06:54;15.53;;;8.47;;
12654;SDS011;6392;44.644;11.448;2023-03-01T03:09:21;17.43;;;9.60;;
12654;SDS011;6392;44.644;11.448;2023-03-01T03:11:48;15.47;;;9.50;;
12654;SDS011;6392;44.644;11.448;2023-03-01T03:14:16;14.43;;;9.47;;
12654;SDS011;6392;44.644;11.448;2023-03-01T03:16:46;14.07;;;9.40;;
12654;SDS011;6392;44.644;11.448;2023-03-01T03:19:14;13.53;;;7.90;;
12654;SDS011;6392;44.644;11.448;2023-03-01T03:21:41;15.40;;;9.00;;
12654;SDS011;6392;44.644;11.448;2023-03-01T03:24:08;15.13;;;9.03;;
12654;SDS011;6392;44.644;11.448;2023-03-01T03:26:36;16.23;;;10.07;;
12654;SDS011;6392;44.644;11.448;2023-03-01T03:29:03;13.97;;;9.20;;
12654;SDS011;6392;44.644;11.448;2023-03-01T03:31:30;11.97;;;8.33;;
12654;SDS011;6392;44.644;11.448;2023-03-01T03:33:58;14.17;;;9.07;;
12654;SDS011;6392;44.644;11.448;2023-03-01T03:36:25;16.80;;;9.30;;
12654;SDS011;6392;44.644;11.448;2023-03-01T03:38:52;16.67;;;8.63;;
12654;SDS011;6392;44.644;11.448;2023-03-01T03:41:19;13.90;;;8.53;;
12654;SDS011;6392;44.644;11.448;2023-03-01T03:43:47;15.33;;;9.50;;
12654;SDS011;6392;44.644;11.448;2023-03-01T03:46:14;14.17;;;8.70;;
12654;SDS011;6392;44.644;11.448;2023-03-01T03:48:42;17.57;;;9.17;;
12654;SDS011;6392;44.644;11.448;2023-03-01T03:51:12;16.33;;;9.00;;
12654;SDS011;6392;44.644;11.448;2023-03-01T03:53:41;17.03;;;8.83;;
12654;SDS011;6392;44.644;11.448;2023-03-01T03:56:09;15.40;;;8.77;;
12654;SDS011;6392;44.644;11.448;2023-03-01T03:58:36;13.97;;;8.53;;
12654;SDS011;6392;44.644;11.448;2023-03-01T04:01:03;16.83;;;9.07;;
12654;SDS011;6392;44.644;11.448;2023-03-01T04:03:31;14.37;;;9.10;;
12654;SDS011;6392;44.644;11.448;2023-03-01T04:06:00;15.13;;;8.13;;
12654;SDS011;6392;44.644;11.448;2023-03-01T04:08:30;15.37;;;8.20;;
12654;SDS011;6392;44.644;11.448;2023-03-01T04:10:58;19.07;;;10.37;;
12654;SDS011;6392;44.644;11.448;2023-03-01T04:13:46;15.67;;;9.47;;
12654;SDS011;6392;44.644;11.448;2023-03-01T04:16:14;17.20;;;10.00;;
12654;SDS011;6392;44.644;11.448;2023-03-01T04:18:41;14.93;;;9.07;;
12654;SDS011;6392;44.644;11.448;2023-03-01T04:21:08;13.27;;;8.57;;
12654;SDS011;6392;44.644;11.448;2023-03-01T04:23:37;12.40;;;9.10;;
12654;SDS011;6392;44.644;11.448;2023-03-01T04:26:06;15.00;;;9.40;;
12654;SDS011;6392;44.644;11.448;2023-03-01T04:28:34;15.03;;;8.97;;
12654;SDS011;6392;44.644;11.448;2023-03-01T04:31:03;15.43;;;8.93;;
12654;SDS011;6392;44.644;11.448;2023-03-01T04:33:38;12.67;;;8.33;;
12654;SDS011;6392;44.644;11.448;2023-03-01T04:36:06;11.83;;;8.03;;
12654;SDS011;6392;44.644;11.448;2023-03-01T04:38:35;14.83;;;8.47;;
12654;SDS011;6392;44.644;11.448;2023-03-01T04:41:05;14.67;;;9.13;;
12654;SDS011;6392;44.644;11.448;2023-03-01T04:43:32;16.07;;;9.13;;
12654;SDS011;6392;44.644;11.448;2023-03-01T04:46:00;16.40;;;8.77;;
12654;SDS011;6392;44.644;11.448;2023-03-01T04:48:29;15.13;;;8.80;;
12654;SDS011;6392;44.644;11.448;2023-03-01T04:50:57;15.00;;;9.17;;
12654;SDS011;6392;44.644;11.448;2023-03-01T04:53:24;14.63;;;8.63;;
12654;SDS011;6392;44.644;11.448;2023-03-01T04:55:52;12.73;;;9.20;;
12654;SDS011;6392;44.644;11.448;2023-03-01T04:58:21;15.10;;;9.60;;
12654;SDS011;6392;44.644;11.448;2023-03-01T05:00:49;15.00;;;9.40;;
12654;SDS011;6392;44.644;11.448;2023-03-01T05:03:16;18.20;;;9.87;;
12654;SDS011;6392;44.644;11.448;2023-03-01T05:05:44;15.37;;;8.47;;
12654;SDS011;6392;44.644;11.448;2023-03-01T05:08:12;15.23;;;9.27;;
12654;SDS011;6392;44.644;11.448;2023-03-01T05:10:44;16.50;;;9.63;;
12654;SDS011;6392;44.644;11.448;2023-03-01T05:13:12;16.30;;;8.67;;
12654;SDS011;6392;44.644;11.448;2023-03-01T05:15:45;15.50;;;8.93;;
12654;SDS011;6392;44.644;11.448;2023-03-01T05:18:13;17.70;;;9.67;;
12654;SDS011;6392;44.644;11.448;2023-03-01T05:20:40;14.20;;;9.03;;
12654;SDS011;6392;44.644;11.448;2023-03-01T05:23:07;16.37;;;9.87;;
12654;SDS011;6392;44.644;11.448;2023-03-01T05:25:34;13.63;;;9.13;;
12654;SDS011;6392;44.644;11.448;2023-03-01T05:28:05;14.37;;;9.73;;
12654;SDS011;6392;44.644;11.448;2023-03-01T05:30:35;16.87;;;9.33;;
12654;SDS011;6392;44.644;11.448;2023-03-01T05:33:05;17.50;;;9.30;;
12654;SDS011;6392;44.644;11.448;2023-03-01T05:35:38;13.27;;;8.77;;
12654;SDS011;6392;44.644;11.448;2023-03-01T05:38:06;16.70;;;9.80;;
12654;SDS011;6392;44.644;11.448;2023-03-01T05:40:33;17.10;;;10.23;;
12654;SDS011;6392;44.644;11.448;2023-03-01T05:43:00;18.40;;;10.13;;
12654;SDS011;6392;44.644;11.448;2023-03-01T05:45:30;19.40;;;10.27;;
12654;SDS011;6392;44.644;11.448;2023-03-01T05:47:58;18.20;;;10.23;;
12654;SDS011;6392;44.644;11.448;2023-03-01T05:50:27;19.37;;;10.13;;
12654;SDS011;6392;44.644;11.448;2023-03-01T05:52:59;18.77;;;9.20;;
12654;SDS011;6392;44.644;11.448;2023-03-01T05:55:28;16.97;;;9.73;;
12654;SDS011;6392;44.644;11.448;2023-03-01T05:57:57;15.90;;;9.93;;
12654;SDS011;6392;44.644;11.448;2023-03-01T06:00:25;14.10;;;9.20;;
12654;SDS011;6392;44.644;11.448;2023-03-01T06:02:53;17.27;;;10.33;;
12654;SDS011;6392;44.644;11.448;2023-03-01T06:05:20;16.80;;;9.80;;
12654;SDS011;6392;44.644;11.448;2023-03-01T06:07:49;16.43;;;9.87;;
12654;SDS011;6392;44.644;11.448;2023-03-01T06:10:16;18.23;;;10.00;;
12654;SDS011;6392;44.644;11.448;2023-03-01T06:12:43;15.13;;;10.33;;
12654;SDS011;6392;44.644;11.448;2023-03-01T06:15:11;16.67;;;10.00;;
12654;SDS011;6392;44.644;11.448;2023-03-01T06:17:39;16.70;;;9.50;;
12654;SDS011;6392;44.644;11.448;2023-03-01T06:20:08;19.90;;;10.00;;
12654;SDS011;6392;44.644;11.448;2023-03-01T06:22:37;16.20;;;9.57;;
12654;SDS011;6392;44.644;11.448;2023-03-01T06:25:06;14.10;;;8.47;;
12654;SDS011;6392;44.644;11.448;2023-03-01T06:27:34;13.13;;;9.13;;
12654;SDS011;6392;44.644;11.448;2023-03-01T06:30:02;16.73;;;9.50;;
12654;SDS011;6392;44.644;11.448;2023-03-01T06:32:29;16.10;;;9.90;;
12654;SDS011;6392;44.644;11.448;2023-03-01T06:34:57;17.90;;;10.10;;
12654;SDS011;6392;44.644;11.448;2023-03-01T06:37:24;17.03;;;10.00;;
12654;SDS011;6392;44.644;11.448;2023-03-01T06:39:51;18.27;;;9.97;;
12654;SDS011;6392;44.644;11.448;2023-03-01T06:42:21;18.80;;;10.23;;
12654;SDS011;6392;44.644;11.448;2023-03-01T06:44:49;15.97;;;9.27;;
12654;SDS011;6392;44.644;11.448;2023-03-01T06:47:15;15.23;;;9.97;;
12654;SDS011;6392;44.644;11.448;2023-03-01T06:49:42;14.10;;;9.90;;
12654;SDS011;6392;44.644;11.448;2023-03-01T06:52:09;18.03;;;9.53;;
12654;SDS011;6392;44.644;11.448;2023-03-01T06:54:36;17.83;;;10.13;;
12654;SDS011;6392;44.644;11.448;2023-03-01T06:57:03;17.10;;;9.50;;
12654;SDS011;6392;44.644;11.448;2023-03-01T06:59:32;16.03;;;10.07;;
12654;SDS011;6392;44.644;11.448;2023-03-01T07:01:59;15.87;;;9.67;;
12654;SDS011;6392;44.644;11.448;2023-03-01T07:04:26;13.87;;;9.50;;
12654;SDS011;6392;44.644;11.448;2023-03-01T07:06:55;19.10;;;9.77;;
12654;SDS011;6392;44.644;11.448;2023-03-01T07:09:22;14.40;;;8.63;;
12654;SDS011;6392;44.644;11.448;2023-03-01T07:11:50;16.37;;;9.83;;
12654;SDS011;6392;44.644;11.448;2023-03-01T07:14:17;15.87;;;10.03;;
12654;SDS011;6392;44.644;11.448;2023-03-01T07:16:46;17.10;;;10.03;;
12654;SDS011;6392;44.644;11.448;2023-03-01T07:19:13;16.17;;;9.23;;
12654;SDS011;6392;44.644;11.448;2023-03-01T07:21:40;17.33;;;10.97;;
12654;SDS011;6392;44.644;11.448;2023-03-01T07:24:07;13.47;;;8.63;;
12654;SDS011;6392;44.644;11.448;2023-03-01T07:26:34;16.80;;;10.03;;
12654;SDS011;6392;44.644;11.448;2023-03-01T07:29:02;15.63;;;9.27;;
12654;SDS011;6392;44.644;11.448;2023-03-01T07:31:30;16.87;;;10.33;;
12654;SDS011;6392;44.644;11.448;2023-03-01T07:33:59;14.53;;;9.07;;
12654;SDS011;6392;44.644;11.448;2023-03-01T07:36:26;16.13;;;8.53;;
12654;SDS011;6392;44.644;11.448;2023-03-01T07:38:53;12.23;;;8.03;;
12654;SDS011;6392;44.644;11.448;2023-03-01T07:41:20;17.57;;;9.13;;
12654;SDS011;6392;44.644;11.448;2023-03-01T07:43:48;17.00;;;9.73;;
12654;SDS011;6392;44.644;11.448;2023-03-01T07:46:15;15.97;;;8.53;;
12654;SDS011;6392;44.644;11.448;2023-03-01T07:48:43;18.13;;;9.87;;
12654;SDS011;6392;44.644;11.448;2023-03-01T07:51:11;14.50;;;8.70;;
12654;SDS011;6392;44.644;11.448;2023-03-01T07:53:39;13.37;;;8.17;;
12654;SDS011;6392;44.644;11.448;2023-03-01T07:56:07;14.00;;;8.03;;
12654;SDS011;6392;44.644;11.448;2023-03-01T07:58:36;15.90;;;9.17;;
12654;SDS011;6392;44.644;11.448;2023-03-01T08:01:04;16.80;;;9.13;;
12654;SDS011;6392;44.644;11.448;2023-03-01T08:03:33;16.93;;;9.53;;
12654;SDS011;6392;44.644;11.448;2023-03-01T08:06:01;14.70;;;9.33;;
12654;SDS011;6392;44.644;11.448;2023-03-01T08:08:30;16.90;;;9.40;;
12654;SDS011;6392;44.644;11.448;2023-03-01T08:10:58;18.07;;;8.67;;
12654;SDS011;6392;44.644;11.448;2023-03-01T08:13:26;14.33;;;8.70;;
12654;SDS011;6392;44.644;11.448;2023-03-01T08:15:54;16.17;;;8.40;;
12654;SDS011;6392;44.644;11.448;2023-03-01T08:18:21;14.77;;;8.77;;
12654;SDS011;6392;44.644;11.448;2023-03-01T08:20:48;13.20;;;8.13;;
12654;SDS011;6392;44.644;11.448;2023-03-01T08:23:15;13.70;;;8.77;;
12654;SDS011;6392;44.644;11.448;2023-03-01T08:25:43;15.47;;;8.77;;
12654;SDS011;6392;44.644;11.448;2023-03-01T08:28:10;14.23;;;8.30;;
12654;SDS011;6392;44.644;11.448;2023-03-01T08:30:37;12.23;;;8.67;;
12654;SDS011;6392;44.644;11.448;2023-03-01T08:33:04;16.93;;;9.20;;
12654;SDS011;6392;44.644;11.448;2023-03-01T08:35:31;15.60;;;9.47;;
12654;SDS011;6392;44.644;11.448;2023-03-01T08:37:58;13.17;;;8.53;;
12654;SDS011;6392;44.644;11.448;2023-03-01T08:40:25;13.60;;;9.03;;
12654;SDS011;6392;44.644;11.448;2023-03-01T08:42:53;11.73;;;7.83;;
12654;SDS011;6392;44.644;11.448;2023-03-01T08:45:20;17.03;;;9.13;;
12654;SDS011;6392;44.644;11.448;2023-03-01T08:47:50;15.60;;;8.70;;
12654;SDS011;6392;44.644;11.448;2023-03-01T08:50:18;12.40;;;9.10;;
12654;SDS011;6392;44.644;11.448;2023-03-01T08:52:45;13.57;;;8.47;;
12654;SDS011;6392;44.644;11.448;2023-03-01T08:55:12;17.07;;;8.43;;
12654;SDS011;6392;44.644;11.448;2023-03-01T08:57:41;15.93;;;9.47;;
12654;SDS011;6392;44.644;11.448;2023-03-01T09:00:10;15.33;;;9.03;;
12654;SDS011;6392;44.644;11.448;2023-03-01T09:02:39;17.33;;;9.73;;
12654;SDS011;6392;44.644;11.448;2023-03-01T09:05:07;13.90;;;8.70;;
12654;SDS011;6392;44.644;11.448;2023-03-01T09:07:35;17.97;;;9.93;;
12654;SDS011;6392;44.644;11.448;2023-03-01T09:10:02;20.60;;;10.47;;
12654;SDS011;6392;44.644;11.448;2023-03-01T09:12:30;15.87;;;10.13;;
12654;SDS011;6392;44.644;11.448;2023-03-01T09:14:57;18.33;;;9.87;;
12654;SDS011;6392;44.644;11.448;2023-03-01T09:17:25;20.03;;;10.77;;
12654;SDS011;6392;44.644;11.448;2023-03-01T09:19:52;13.00;;;9.10;;
12654;SDS011;6392;44.644;11.448;2023-03-01T09:22:19;15.37;;;10.30;;
12654;SDS011;6392;44.644;11.448;2023-03-01T09:24:46;17.10;;;10.90;;
12654;SDS011;6392;44.644;11.448;2023-03-01T09:27:13;16.17;;;9.77;;
12654;SDS011;6392;44.644;11.448;2023-03-01T09:29:43;18.43;;;10.87;;
12654;SDS011;6392;44.644;11.448;2023-03-01T09:32:10;18.27;;;10.00;;
12654;SDS011;6392;44.644;11.448;2023-03-01T09:34:39;19.83;;;11.50;;
12654;SDS011;6392;44.644;11.448;2023-03-01T09:37:20;16.63;;;10.30;;
12654;SDS011;6392;44.644;11.448;2023-03-01T09:39:47;17.00;;;11.20;;
12654;SDS011;6392;44.644;11.448;2023-03-01T09:42:14;19.30;;;11.60;;
12654;SDS011;6392;44.644;11.448;2023-03-01T09:44:43;19.03;;;10.57;;
12654;SDS011;6392;44.644;11.448;2023-03-01T09:47:16;19.17;;;10.97;;
12654;SDS011;6392;44.644;11.448;2023-03-01T09:49:48;19.23;;;11.93;;
12654;SDS011;6392;44.644;11.448;2023-03-01T09:52:26;25.87;;;12.93;;
12654;SDS011;6392;44.644;11.448;2023-03-01T09:54:59;21.80;;;13.10;;
12654;SDS011;6392;44.644;11.448;2023-03-01T09:57:28;21.90;;;12.67;;
12654;SDS011;6392;44.644;11.448;2023-03-01T10:00:08;22.67;;;12.87;;
12654;SDS011;6392;44.644;11.448;2023-03-01T10:02:51;22.87;;;12.40;;
12654;SDS011;6392;44.644;11.448;2023-03-01T10:05:30;20.93;;;12.27;;
12654;SDS011;6392;44.644;11.448;2023-03-01T10:08:19;22.73;;;13.47;;
12654;SDS011;6392;44.644;11.448;2023-03-01T10:10:55;22.00;;;12.60;;
12654;SDS011;6392;44.644;11.448;2023-03-01T10:13:23;27.20;;;14.67;;
12654;SDS011;6392;44.644;11.448;2023-03-01T10:15:55;26.83;;;14.67;;
12654;SDS011;6392;44.644;11.448;2023-03-01T10:18:27;24.20;;;14.37;;
12654;SDS011;6392;44.644;11.448;2023-03-01T10:20:59;27.00;;;15.97;;
12654;SDS011;6392;44.644;11.448;2023-03-01T10:23:30;27.30;;;14.13;;
12654;SDS011;6392;44.644;11.448;2023-03-01T10:26:07;23.47;;;14.33;;
12654;SDS011;6392;44.644;11.448;2023-03-01T10:28:47;22.70;;;11.83;;
12654;SDS011;6392;44.644;11.448;2023-03-01T10:31:25;22.97;;;13.30;;
12654;SDS011;6392;44.644;11.448;2023-03-01T10:34:02;25.67;;;13.80;;
12654;SDS011;6392;44.644;11.448;2023-03-01T10:36:32;23.27;;;12.93;;
12654;SDS011;6392;44.644;11.448;2023-03-01T10:39:00;24.47;;;14.43;;
12654;SDS011;6392;44.644;11.448;2023-03-01T10:41:40;27.30;;;15.17;;
12654;SDS011;6392;44.644;11.448;2023-03-01T10:44:34;23.23;;;14.33;;
12654;SDS011;6392;44.644;11.448;2023-03-01T10:47:03;29.13;;;15.10;;
12654;SDS011;6392;44.644;11.448;2023-03-01T10:49:30;25.87;;;14.27;;
12654;SDS011;6392;44.644;11.448;2023-03-01T10:52:11;22.17;;;13.73;;
12654;SDS011;6392;44.644;11.448;2023-03-01T10:54:50;26.00;;;15.80;;
12654;SDS011;6392;44.644;11.448;2023-03-01T10:57:36;24.60;;;14.37;;
12654;SDS011;6392;44.644;11.448;2023-03-01T11:00:19;22.33;;;12.80;;
12654;SDS011;6392;44.644;11.448;2023-03-01T11:02:50;20.60;;;12.77;;
12654;SDS011;6392;44.644;11.448;2023-03-01T11:05:28;21.50;;;12.57;;
12654;SDS011;6392;44.644;11.448;2023-03-01T11:08:00;26.00;;;14.87;;
12654;SDS011;6392;44.644;11.448;2023-03-01T11:10:29;26.73;;;14.77;;
12654;SDS011;6392;44.644;11.448;2023-03-01T11:13:08;25.33;;;14.50;;
12654;SDS011;6392;44.644;11.448;2023-03-01T11:15:40;24.40;;;13.43;;
12654;SDS011;6392;44.644;11.448;2023-03-01T11:18:17;23.63;;;12.20;;
12654;SDS011;6392;44.644;11.448;2023-03-01T11:20:47;25.73;;;14.20;;
12654;SDS011;6392;44.644;11.448;2023-03-01T11:23:16;25.53;;;12.80;;
12654;SDS011;6392;44.644;11.448;2023-03-01T11:25:47;23.73;;;12.93;;
12654;SDS011;6392;44.644;11.448;2023-03-01T11:28:18;24.97;;;14.50;;
12654;SDS011;6392;44.644;11.448;2023-03-01T11:30:47;23.60;;;12.83;;
12654;SDS011;6392;44.644;11.448;2023-03-01T11:33:23;20.67;;;12.23;;
12654;SDS011;6392;44.644;11.448;2023-03-01T11:36:00;28.07;;;12.30;;
12654;SDS011;6392;44.644;11.448;2023-03-01T11:38:34;23.17;;;11.70;;
12654;SDS011;6392;44.644;11.448;2023-03-01T11:41:05;20.97;;;12.70;;
12654;SDS011;6392;44.644;11.448;2023-03-01T11:43:35;19.10;;;11.97;;
12654;SDS011;6392;44.644;11.448;2023-03-01T11:46:27;21.83;;;12.73;;
12654;SDS011;6392;44.644;11.448;2023-03-01T11:49:12;21.80;;;11.70;;
12654;SDS011;6392;44.644;11.448;2023-03-01T11:52:02;21.33;;;11.97;;
12654;SDS011;6392;44.644;11.448;2023-03-01T11:54:44;19.30;;;12.03;;
12654;SDS011;6392;44.644;11.448;2023-03-01T11:57:26;22.37;;;12.67;;
12654;SDS011;6392;44.644;11.448;2023-03-01T12:00:11;16.70;;;11.20;;
12654;SDS011;6392;44.644;11.448;2023-03-01T12:02:48;19.57;;;11.73;;
12654;SDS011;6392;44.644;11.448;2023-03-01T12:05:42;22.20;;;12.00;;
12654;SDS011;6392;44.644;11.448;2023-03-01T12:08:29;19.33;;;12.03;;
12654;SDS011;6392;44.644;11.448;2023-03-01T12:11:06;19.87;;;11.27;;
12654;SDS011;6392;44.644;11.448;2023-03-01T12:13:52;18.90;;;11.37;;
12654;SDS011;6392;44.644;11.448;2023-03-01T12:16:36;17.60;;;10.90;;
12654;SDS011;6392;44.644;11.448;2023-03-01T12:19:25;18.20;;;10.57;;
12654;SDS011;6392;44.644;11.448;2023-03-01T12:22:09;23.27;;;11.67;;
12654;SDS011;6392;44.644;11.448;2023-03-01T12:28:07;21.13;;;13.87;;
12654;SDS011;6392;44.644;11.448;2023-03-01T12:33:49;21.57;;;12.33;;
12654;SDS011;6392;44.644;11.448;2023-03-01T12:36:42;21.53;;;12.17;;
12654;SDS011;6392;44.644;11.448;2023-03-01T12:39:24;20.70;;;11.57;;
12654;SDS011;6392;44.644;11.448;2023-03-01T12:42:04;19.70;;;12.90;;
12654;SDS011;6392;44.644;11.448;2023-03-01T12:44:49;20.30;;;12.07;;
12654;SDS011;6392;44.644;11.448;2023-03-01T12:47:36;18.37;;;10.53;;
12654;SDS011;6392;44.644;11.448;2023-03-01T12:50:17;23.57;;;13.13;;
12654;SDS011;6392;44.644;11.448;2023-03-01T12:52:47;23.80;;;13.13;;
12654;SDS011;6392;44.644;11.448;2023-03-01T12:55:24;23.23;;;12.97;;
12654;SDS011;6392;44.644;11.448;2023-03-01T12:57:58;18.50;;;11.27;;
12654;SDS011;6392;44.644;11.448;2023-03-01T13:00:32;21.33;;;13.43;;
12654;SDS011;6392;44.644;11.448;2023-03-01T13:03:22;16.97;;;10.73;;
12654;SDS011;6392;44.644;11.448;2023-03-01T13:05:59;20.87;;;11.93;;
12654;SDS011;6392;44.644;11.448;2023-03-01T13:08:36;22.00;;;12.23;;
12654;SDS011;6392;44.644;11.448;2023-03-01T13:11:12;21.57;;;12.23;;
12654;SDS011;6392;44.644;11.448;2023-03-01T13:13:43;23.53;;;13.07;;
12654;SDS011;6392;44.644;11.448;2023-03-01T13:16:38;23.60;;;12.77;;
12654;SDS011;6392;44.644;11.448;2023-03-01T13:19:08;21.47;;;12.40;;
12654;SDS011;6392;44.644;11.448;2023-03-01T13:21:40;24.80;;;14.13;;
12654;SDS011;6392;44.644;11.448;2023-03-01T13:27:09;20.47;;;11.50;;
12654;SDS011;6392;44.644;11.448;2023-03-01T13:29:44;20.90;;;13.50;;
12654;SDS011;6392;44.644;11.448;2023-03-01T13:32:23;22.90;;;13.30;;
12654;SDS011;6392;44.644;11.448;2023-03-01T13:34:56;23.00;;;12.43;;
12654;SDS011;6392;44.644;11.448;2023-03-01T13:40:04;24.93;;;14.37;;
12654;SDS011;6392;44.644;11.448;2023-03-01T13:42:49;22.90;;;13.03;;
12654;SDS011;6392;44.644;11.448;2023-03-01T13:45:24;25.80;;;13.30;;
12654;SDS011;6392;44.644;11.448;2023-03-01T13:48:03;18.80;;;11.10;;
12654;SDS011;6392;44.644;11.448;2023-03-01T13:50:38;23.20;;;13.50;;
12654;SDS011;6392;44.644;11.448;2023-03-01T13:53:14;23.23;;;12.97;;
12654;SDS011;6392;44.644;11.448;2023-03-01T13:55:44;19.73;;;11.20;;
12654;SDS011;6392;44.644;11.448;2023-03-01T13:58:19;20.43;;;12.40;;
12654;SDS011;6392;44.644;11.448;2023-03-01T14:00:59;22.33;;;12.60;;
12654;SDS011;6392;44.644;11.448;2023-03-01T14:03:29;24.80;;;13.70;;
12654;SDS011;6392;44.644;11.448;2023-03-01T14:05:59;20.83;;;13.37;;
12654;SDS011;6392;44.644;11.448;2023-03-01T14:08:28;22.93;;;12.73;;
12654;SDS011;6392;44.644;11.448;2023-03-01T14:14:12;19.97;;;12.50;;
12654;SDS011;6392;44.644;11.448;2023-03-01T14:16:57;22.63;;;12.43;;
12654;SDS011;6392;44.644;11.448;2023-03-01T14:19:32;20.00;;;11.37;;
12654;SDS011;6392;44.644;11.448;2023-03-01T14:22:02;22.47;;;12.83;;
12654;SDS011;6392;44.644;11.448;2023-03-01T14:24:40;23.57;;;13.73;;
12654;SDS011;6392;44.644;11.448;2023-03-01T14:27:12;22.17;;;11.93;;
12654;SDS011;6392;44.644;11.448;2023-03-01T14:29:40;24.10;;;13.00;;
12654;SDS011;6392;44.644;11.448;2023-03-01T14:32:08;26.90;;;13.43;;
12654;SDS011;6392;44.644;11.448;2023-03-01T14:34:39;25.83;;;13.07;;
12654;SDS011;6392;44.644;11.448;2023-03-01T14:37:11;22.20;;;13.77;;
12654;SDS011;6392;44.644;11.448;2023-03-01T14:39:44;21.63;;;12.67;;
12654;SDS011;6392;44.644;11.448;2023-03-01T14:42:12;22.30;;;12.17;;
12654;SDS011;6392;44.644;11.448;2023-03-01T14:44:40;22.80;;;12.90;;
12654;SDS011;6392;44.644;11.448;2023-03-01T14:47:10;20.30;;;13.10;;
12654;SDS011;6392;44.644;11.448;2023-03-01T14:49:42;27.17;;;14.90;;
12654;SDS011;6392;44.644;11.448;2023-03-01T14:52:17;24.43;;;13.60;;
12654;SDS011;6392;44.644;11.448;2023-03-01T14:54:47;25.43;;;14.13;;
12654;SDS011;6392;44.644;11.448;2023-03-01T14:57:17;25.37;;;13.60;;
12654;SDS011;6392;44.644;11.448;2023-03-01T14:59:46;21.70;;;12.13;;
12654;SDS011;6392;44.644;11.448;2023-03-01T15:02:16;22.40;;;13.17;;
12654;SDS011;6392;44.644;11.448;2023-03-01T15:04:46;26.47;;;13.60;;